sensor_id;sensor_type;location;lat;lon;timestamp;pressure;altitude;pressure_sealevel;temperature;humidity
30636;BME280;17400;52.392;9.750;2023-04-28T00:00:26;101107.84;;;9.42;50.99
30636;BME280;17400;52.392;9.750;2023-04-28T00:02:54;101102.56;;;9.49;51.06
30636;BME280;17400;52.392;9.750;2023-04-28T00:05:22;101094.56;;;9.56;50.36
30636;BME280;17400;52.392;9.750;2023-04-28T00:07:50;101095.66;;;9.46;50.79
30636;BME280;17400;52.392;9.750;2023-04-28T00:10:18;101100.75;;;9.41;50.90
30636;BME280;17400;52.392;9.750;2023-04-28T00:12:46;101097.97;;;9.49;50.82
30636;BME280;17400;52.392;9.750;2023-04-28T00:15:14;101083.44;;;9.50;50.61
30636;BME280;17400;52.392;9.750;2023-04-28T00:17:42;101085.66;;;9.47;50.89
30636;BME280;17400;52.392;9.750;2023-04-28T00:20:10;101084.34;;;9.43;51.08
30636;BME280;17400;52.392;9.750;2023-04-28T00:22:39;101090.13;;;9.40;51.14
30636;BME280;17400;52.392;9.750;2023-04-28T00:25:07;101077.16;;;9.35;50.94
30636;BME280;17400;52.392;9.750;2023-04-28T00:27:35;101076.50;;;9.33;51.24
30636;BME280;17400;52.392;9.750;2023-04-28T00:30:04;101068.72;;;9.30;51.69
30636;BME280;17400;52.392;9.750;2023-04-28T00:32:33;101066.03;;;9.30;51.44
30636;BME280;17400;52.392;9.750;2023-04-28T00:35:01;101063.28;;;9.38;51.44
30636;BME280;17400;52.392;9.750;2023-04-28T00:37:28;101058.59;;;9.32;51.80
30636;BME280;17400;52.392;9.750;2023-04-28T00:39:56;101059.91;;;9.36;51.76
30636;BME280;17400;52.392;9.750;2023-04-28T00:42:23;101064.38;;;9.29;51.92
30636;BME280;17400;52.392;9.750;2023-04-28T00:44:51;101061.00;;;9.27;52.15
30636;BME280;17400;52.392;9.750;2023-04-28T00:47:19;101053.56;;;9.29;52.24
30636;BME280;17400;52.392;9.750;2023-04-28T00:49:48;101058.91;;;9.37;51.69
30636;BME280;17400;52.392;9.750;2023-04-28T00:52:16;101050.50;;;9.32;52.31
30636;BME280;17400;52.392;9.750;2023-04-28T00:54:43;101048.81;;;9.31;51.91
30636;BME280;17400;52.392;9.750;2023-04-28T00:57:13;101042.19;;;9.33;52.00
30636;BME280;17400;52.392;9.750;2023-04-28T00:59:40;101059.53;;;9.39;51.77
30636;BME280;17400;52.392;9.750;2023-04-28T01:02:08;101044.41;;;9.30;52.10
30636;BME280;17400;52.392;9.750;2023-04-28T01:04:43;101039.28;;;9.20;52.61
30636;BME280;17400;52.392;9.750;2023-04-28T01:07:13;101041.44;;;9.25;52.55
30636;BME280;17400;52.392;9.750;2023-04-28T01:09:40;101040.06;;;9.29;52.70
30636;BME280;17400;52.392;9.750;2023-04-28T01:12:09;101031.97;;;9.29;52.67
30636;BME280;17400;52.392;9.750;2023-04-28T01:14:37;101032.09;;;9.27;52.25
30636;BME280;17400;52.392;9.750;2023-04-28T01:17:05;101022.75;;;9.38;52.23
30636;BME280;17400;52.392;9.750;2023-04-28T01:19:32;101023.56;;;9.24;52.99
30636;BME280;17400;52.392;9.750;2023-04-28T01:22:00;101027.25;;;9.23;52.89
30636;BME280;17400;52.392;9.750;2023-04-28T01:24:29;101024.94;;;9.20;53.12
30636;BME280;17400;52.392;9.750;2023-04-28T01:26:57;101020.53;;;9.19;53.44
30636;BME280;17400;52.392;9.750;2023-04-28T01:29:28;101022.69;;;9.23;53.15
30636;BME280;17400;52.392;9.750;2023-04-28T01:31:56;101018.56;;;9.12;53.51
30636;BME280;17400;52.392;9.750;2023-04-28T01:34:24;101018.03;;;9.17;53.60
30636;BME280;17400;52.392;9.750;2023-04-28T01:36:51;101017.59;;;9.05;54.33
30636;BME280;17400;52.392;9.750;2023-04-28T01:39:19;101017.91;;;9.10;53.94
30636;BME280;17400;52.392;9.750;2023-04-28T01:41:49;101009.13;;;9.08;53.82
30636;BME280;17400;52.392;9.750;2023-04-28T01:44:17;101010.75;;;9.17;53.87
30636;BME280;17400;52.392;9.750;2023-04-28T01:46:45;101000.13;;;9.16;53.89
30636;BME280;17400;52.392;9.750;2023-04-28T01:49:13;101007.69;;;9.21;53.55
30636;BME280;17400;52.392;9.750;2023-04-28T01:51:41;101002.28;;;9.21;53.52
30636;BME280;17400;52.392;9.750;2023-04-28T01:54:09;100998.22;;;9.25;53.25
30636;BME280;17400;52.392;9.750;2023-04-28T01:56:37;100994.19;;;9.21;53.67
30636;BME280;17400;52.392;9.750;2023-04-28T01:59:06;100994.47;;;9.26;53.25
30636;BME280;17400;52.392;9.750;2023-04-28T02:01:34;100985.34;;;9.27;53.61
30636;BME280;17400;52.392;9.750;2023-04-28T02:04:01;100980.03;;;9.19;53.83
30636;BME280;17400;52.392;9.750;2023-04-28T02:06:31;100976.31;;;9.20;53.76
30636;BME280;17400;52.392;9.750;2023-04-28T02:08:59;100974.94;;;9.24;53.88
30636;BME280;17400;52.392;9.750;2023-04-28T02:11:27;100966.16;;;9.22;53.80
30636;BME280;17400;52.392;9.750;2023-04-28T02:13:54;100964.47;;;9.21;53.79
30636;BME280;17400;52.392;9.750;2023-04-28T02:16:23;100972.41;;;9.22;54.13
30636;BME280;17400;52.392;9.750;2023-04-28T02:18:51;100963.53;;;9.13;54.13
30636;BME280;17400;52.392;9.750;2023-04-28T02:21:19;100978.59;;;9.08;54.52
30636;BME280;17400;52.392;9.750;2023-04-28T02:23:46;100968.88;;;8.98;54.79
30636;BME280;17400;52.392;9.750;2023-04-28T02:26:15;100965.44;;;9.05;55.15
30636;BME280;17400;52.392;9.750;2023-04-28T02:28:43;100957.72;;;9.02;55.02
30636;BME280;17400;52.392;9.750;2023-04-28T02:31:11;100960.66;;;8.92;55.34
30636;BME280;17400;52.392;9.750;2023-04-28T02:33:40;100960.22;;;9.03;54.99
30636;BME280;17400;52.392;9.750;2023-04-28T02:36:09;100959.81;;;8.91;55.13
30636;BME280;17400;52.392;9.750;2023-04-28T02:38:36;100949.38;;;8.88;55.68
30636;BME280;17400;52.392;9.750;2023-04-28T02:41:07;100945.88;;;8.79;56.13
30636;BME280;17400;52.392;9.750;2023-04-28T02:43:35;100928.16;;;8.85;56.12
30636;BME280;17400;52.392;9.750;2023-04-28T02:46:03;100928.38;;;8.75;56.48
30636;BME280;17400;52.392;9.750;2023-04-28T02:48:32;100929.22;;;8.76;56.14
30636;BME280;17400;52.392;9.750;2023-04-28T02:51:02;100931.94;;;8.76;57.09
30636;BME280;17400;52.392;9.750;2023-04-28T02:53:32;100925.25;;;8.87;56.47
30636;BME280;17400;52.392;9.750;2023-04-28T02:56:00;100925.25;;;8.87;55.99
30636;BME280;17400;52.392;9.750;2023-04-28T02:58:29;100926.09;;;8.87;56.41
30636;BME280;17400;52.392;9.750;2023-04-28T03:00:57;100922.91;;;8.83;56.64
30636;BME280;17400;52.392;9.750;2023-04-28T03:03:25;100924.91;;;8.90;56.06
30636;BME280;17400;52.392;9.750;2023-04-28T03:05:53;100915.38;;;8.79;56.96
30636;BME280;17400;52.392;9.750;2023-04-28T03:08:23;100914.50;;;8.78;56.65
30636;BME280;17400;52.392;9.750;2023-04-28T03:10:53;100907.63;;;8.76;57.11
30636;BME280;17400;52.392;9.750;2023-04-28T03:13:20;100903.38;;;8.81;56.99
30636;BME280;17400;52.392;9.750;2023-04-28T03:15:48;100909.28;;;8.77;57.63
30636;BME280;17400;52.392;9.750;2023-04-28T03:18:16;100904.63;;;8.71;57.87
30636;BME280;17400;52.392;9.750;2023-04-28T03:20:44;100898.13;;;8.57;58.96
30636;BME280;17400;52.392;9.750;2023-04-28T03:23:11;100890.34;;;8.62;58.88
30636;BME280;17400;52.392;9.750;2023-04-28T03:25:40;100885.91;;;8.69;58.72
30636;BME280;17400;52.392;9.750;2023-04-28T03:28:08;100895.03;;;8.68;58.71
30636;BME280;17400;52.392;9.750;2023-04-28T03:30:37;100895.69;;;8.70;59.22
30636;BME280;17400;52.392;9.750;2023-04-28T03:33:04;100886.75;;;8.70;59.15
30636;BME280;17400;52.392;9.750;2023-04-28T03:35:32;100889.63;;;8.68;59.50
30636;BME280;17400;52.392;9.750;2023-04-28T03:38:00;100885.25;;;8.67;59.48
30636;BME280;17400;52.392;9.750;2023-04-28T03:40:28;100879.56;;;8.62;59.85
30636;BME280;17400;52.392;9.750;2023-04-28T03:42:56;100881.34;;;8.46;61.29
30636;BME280;17400;52.392;9.750;2023-04-28T03:45:24;100863.75;;;8.59;60.41
30636;BME280;17400;52.392;9.750;2023-04-28T03:47:52;100864.44;;;8.53;60.40
30636;BME280;17400;52.392;9.750;2023-04-28T03:50:20;100861.06;;;8.50;61.08
30636;BME280;17400;52.392;9.750;2023-04-28T03:52:50;100858.22;;;8.44;61.68
30636;BME280;17400;52.392;9.750;2023-04-28T03:55:18;100855.41;;;8.45;61.33
30636;BME280;17400;52.392;9.750;2023-04-28T03:57:46;100855.03;;;8.48;61.77
30636;BME280;17400;52.392;9.750;2023-04-28T04:00:15;100851.06;;;8.36;62.23
30636;BME280;17400;52.392;9.750;2023-04-28T04:02:43;100856.88;;;8.48;61.73
30636;BME280;17400;52.392;9.750;2023-04-28T04:05:11;100844.06;;;8.50;61.10
30636;BME280;17400;52.392;9.750;2023-04-28T04:07:39;100841.19;;;8.52;61.41
30636;BME280;17400;52.392;9.750;2023-04-28T04:10:09;100848.34;;;8.36;62.06
30636;BME280;17400;52.392;9.750;2023-04-28T04:12:37;100845.75;;;8.51;61.49
30636;BME280;17400;52.392;9.750;2023-04-28T04:15:06;100844.53;;;8.54;61.51
30636;BME280;17400;52.392;9.750;2023-04-28T04:17:35;100841.84;;;8.54;61.53
30636;BME280;17400;52.392;9.750;2023-04-28T04:20:03;100839.88;;;8.47;61.31
30636;BME280;17400;52.392;9.750;2023-04-28T04:22:31;100839.78;;;8.56;61.46
30636;BME280;17400;52.392;9.750;2023-04-28T04:24:58;100834.41;;;8.56;61.31
30636;BME280;17400;52.392;9.750;2023-04-28T04:27:26;100829.19;;;8.54;61.20
30636;BME280;17400;52.392;9.750;2023-04-28T04:29:54;100829.56;;;8.51;61.52
30636;BME280;17400;52.392;9.750;2023-04-28T04:32:21;100823.16;;;8.52;62.09
30636;BME280;17400;52.392;9.750;2023-04-28T04:34:50;100830.25;;;8.68;60.73
30636;BME280;17400;52.392;9.750;2023-04-28T04:37:18;100828.22;;;8.70;60.90
30636;BME280;17400;52.392;9.750;2023-04-28T04:39:46;100831.09;;;8.69;60.59
30636;BME280;17400;52.392;9.750;2023-04-28T04:42:13;100827.38;;;8.70;60.83
30636;BME280;17400;52.392;9.750;2023-04-28T04:44:50;100813.78;;;8.63;61.02
30636;BME280;17400;52.392;9.750;2023-04-28T04:47:18;100819.16;;;8.63;61.01
30636;BME280;17400;52.392;9.750;2023-04-28T04:49:46;100819.16;;;8.63;60.97
30636;BME280;17400;52.392;9.750;2023-04-28T04:52:15;100813.97;;;8.61;61.24
30636;BME280;17400;52.392;9.750;2023-04-28T04:54:43;100814.13;;;8.60;61.11
30636;BME280;17400;52.392;9.750;2023-04-28T04:57:11;100823.41;;;8.57;61.52
30636;BME280;17400;52.392;9.750;2023-04-28T04:59:38;100821.69;;;8.64;61.20
30636;BME280;17400;52.392;9.750;2023-04-28T05:02:06;100821.50;;;8.66;61.19
30636;BME280;17400;52.392;9.750;2023-04-28T05:04:34;100824.28;;;8.58;61.83
30636;BME280;17400;52.392;9.750;2023-04-28T05:07:02;100812.34;;;8.52;62.04
30636;BME280;17400;52.392;9.750;2023-04-28T05:09:30;100811.19;;;8.46;61.67
30636;BME280;17400;52.392;9.750;2023-04-28T05:12:01;100811.88;;;8.48;62.27
30636;BME280;17400;52.392;9.750;2023-04-28T05:14:29;100810.38;;;8.46;61.94
30636;BME280;17400;52.392;9.750;2023-04-28T05:16:58;100812.50;;;8.50;62.06
30636;BME280;17400;52.392;9.750;2023-04-28T05:19:25;100815.06;;;8.52;61.76
30636;BME280;17400;52.392;9.750;2023-04-28T05:21:53;100804.38;;;8.59;61.65
30636;BME280;17400;52.392;9.750;2023-04-28T05:24:21;100802.00;;;8.56;62.21
30636;BME280;17400;52.392;9.750;2023-04-28T05:26:51;100808.19;;;8.64;61.79
30636;BME280;17400;52.392;9.750;2023-04-28T05:29:20;100799.09;;;8.65;61.45
30636;BME280;17400;52.392;9.750;2023-04-28T05:31:49;100785.88;;;8.71;61.69
30636;BME280;17400;52.392;9.750;2023-04-28T05:34:17;100804.81;;;8.62;61.83
30636;BME280;17400;52.392;9.750;2023-04-28T05:36:45;100787.53;;;8.72;61.20
30636;BME280;17400;52.392;9.750;2023-04-28T05:39:13;100787.53;;;8.72;61.80
30636;BME280;17400;52.392;9.750;2023-04-28T05:41:41;100784.38;;;8.68;61.79
30636;BME280;17400;52.392;9.750;2023-04-28T05:44:10;100778.69;;;8.63;62.14
30636;BME280;17400;52.392;9.750;2023-04-28T05:46:38;100782.03;;;8.65;62.72
30636;BME280;17400;52.392;9.750;2023-04-28T05:49:05;100771.25;;;8.65;62.61
30636;BME280;17400;52.392;9.750;2023-04-28T05:51:33;100780.38;;;8.64;63.27
30636;BME280;17400;52.392;9.750;2023-04-28T05:54:01;100777.81;;;8.86;62.42
30636;BME280;17400;52.392;9.750;2023-04-28T05:56:29;100774.19;;;8.93;62.34
30636;BME280;17400;52.392;9.750;2023-04-28T05:58:57;100773.25;;;9.01;61.74
30636;BME280;17400;52.392;9.750;2023-04-28T06:01:27;100768.69;;;9.02;61.79
30636;BME280;17400;52.392;9.750;2023-04-28T06:03:55;100773.91;;;9.03;61.47
30636;BME280;17400;52.392;9.750;2023-04-28T06:06:24;100772.97;;;8.96;62.21
30636;BME280;17400;52.392;9.750;2023-04-28T06:08:53;100772.50;;;8.92;62.20
30636;BME280;17400;52.392;9.750;2023-04-28T06:11:21;100767.63;;;8.88;62.93
30636;BME280;17400;52.392;9.750;2023-04-28T06:13:49;100768.50;;;9.03;62.43
30636;BME280;17400;52.392;9.750;2023-04-28T06:16:17;100760.41;;;9.03;62.19
30636;BME280;17400;52.392;9.750;2023-04-28T06:18:46;100763.94;;;9.19;62.01
30636;BME280;17400;52.392;9.750;2023-04-28T06:21:15;100766.25;;;9.22;61.94
30636;BME280;17400;52.392;9.750;2023-04-28T06:23:43;100763.56;;;9.22;61.95
30636;BME280;17400;52.392;9.750;2023-04-28T06:26:11;100761.13;;;9.27;62.34
30636;BME280;17400;52.392;9.750;2023-04-28T06:28:41;100756.69;;;9.34;61.97
30636;BME280;17400;52.392;9.750;2023-04-28T06:31:08;100756.75;;;9.26;63.19
30636;BME280;17400;52.392;9.750;2023-04-28T06:33:36;100762.16;;;9.26;63.38
30636;BME280;17400;52.392;9.750;2023-04-28T06:36:06;100757.69;;;9.33;62.66
30636;BME280;17400;52.392;9.750;2023-04-28T06:38:34;100757.97;;;9.38;62.62
30636;BME280;17400;52.392;9.750;2023-04-28T06:41:03;100757.66;;;9.48;62.58
30636;BME280;17400;52.392;9.750;2023-04-28T06:43:30;100765.38;;;9.51;61.83
30636;BME280;17400;52.392;9.750;2023-04-28T06:45:59;100765.31;;;9.59;62.89
30636;BME280;17400;52.392;9.750;2023-04-28T06:48:26;100768.84;;;9.60;61.88
30636;BME280;17400;52.392;9.750;2023-04-28T06:50:54;100765.19;;;9.67;61.71
30636;BME280;17400;52.392;9.750;2023-04-28T06:53:23;100771.50;;;9.75;61.79
30636;BME280;17400;52.392;9.750;2023-04-28T06:55:51;100759.19;;;9.72;61.15
30636;BME280;17400;52.392;9.750;2023-04-28T06:58:18;100759.84;;;9.74;61.81
30636;BME280;17400;52.392;9.750;2023-04-28T07:00:47;100749.19;;;9.88;61.01
30636;BME280;17400;52.392;9.750;2023-04-28T07:03:14;100739.72;;;9.98;60.55
30636;BME280;17400;52.392;9.750;2023-04-28T07:05:42;100739.16;;;10.03;60.59
30636;BME280;17400;52.392;9.750;2023-04-28T07:08:10;100744.56;;;10.03;59.80
30636;BME280;17400;52.392;9.750;2023-04-28T07:10:40;100736.97;;;10.13;59.46
30636;BME280;17400;52.392;9.750;2023-04-28T07:13:08;100738.25;;;10.17;58.71
30636;BME280;17400;52.392;9.750;2023-04-28T07:15:36;100735.59;;;10.03;60.35
30636;BME280;17400;52.392;9.750;2023-04-28T07:18:04;100735.56;;;10.17;59.50
30636;BME280;17400;52.392;9.750;2023-04-28T07:20:32;100729.53;;;10.22;59.35
30636;BME280;17400;52.392;9.750;2023-04-28T07:22:59;100731.03;;;10.25;58.46
30636;BME280;17400;52.392;9.750;2023-04-28T07:25:28;100732.09;;;10.30;59.53
30636;BME280;17400;52.392;9.750;2023-04-28T07:27:57;100737.34;;;10.32;58.95
30636;BME280;17400;52.392;9.750;2023-04-28T07:30:24;100727.50;;;10.24;58.73
30636;BME280;17400;52.392;9.750;2023-04-28T07:32:53;100733.72;;;10.25;61.08
30636;BME280;17400;52.392;9.750;2023-04-28T07:35:22;100736.50;;;10.31;59.40
30636;BME280;17400;52.392;9.750;2023-04-28T07:37:49;100726.72;;;10.52;58.98
30636;BME280;17400;52.392;9.750;2023-04-28T07:40:17;100734.09;;;10.65;58.74
30636;BME280;17400;52.392;9.750;2023-04-28T07:42:45;100729.16;;;10.75;57.84
30636;BME280;17400;52.392;9.750;2023-04-28T07:45:15;100733.59;;;10.83;57.87
30636;BME280;17400;52.392;9.750;2023-04-28T07:47:45;100727.72;;;10.79;57.38
30636;BME280;17400;52.392;9.750;2023-04-28T07:50:12;100727.13;;;10.84;57.63
30636;BME280;17400;52.392;9.750;2023-04-28T07:52:42;100718.03;;;10.92;57.54
30636;BME280;17400;52.392;9.750;2023-04-28T07:55:10;100714.94;;;11.02;56.57
30636;BME280;17400;52.392;9.750;2023-04-28T07:57:38;100716.63;;;11.03;56.68
30636;BME280;17400;52.392;9.750;2023-04-28T08:00:09;100714.78;;;11.10;56.34
30636;BME280;17400;52.392;9.750;2023-04-28T08:02:38;100710.22;;;11.10;56.31
30636;BME280;17400;52.392;9.750;2023-04-28T08:05:07;100708.56;;;11.16;55.88
30636;BME280;17400;52.392;9.750;2023-04-28T08:07:36;100710.44;;;11.15;56.75
30636;BME280;17400;52.392;9.750;2023-04-28T08:10:05;100704.84;;;11.24;56.05
30636;BME280;17400;52.392;9.750;2023-04-28T08:12:32;100702.75;;;11.26;55.76
30636;BME280;17400;52.392;9.750;2023-04-28T08:15:00;100699.47;;;11.30;55.06
30636;BME280;17400;52.392;9.750;2023-04-28T08:17:28;100707.41;;;11.39;55.10
30636;BME280;17400;52.392;9.750;2023-04-28T08:19:57;100701.63;;;11.48;55.37
30636;BME280;17400;52.392;9.750;2023-04-28T08:22:25;100694.97;;;11.51;55.14
30636;BME280;17400;52.392;9.750;2023-04-28T08:24:52;100697.47;;;11.53;55.50
30636;BME280;17400;52.392;9.750;2023-04-28T08:27:20;100696.44;;;11.60;55.22
30636;BME280;17400;52.392;9.750;2023-04-28T08:29:49;100702.03;;;11.59;55.39
30636;BME280;17400;52.392;9.750;2023-04-28T08:32:17;100697.06;;;11.69;55.04
30636;BME280;17400;52.392;9.750;2023-04-28T08:34:44;100687.69;;;11.65;55.00
30636;BME280;17400;52.392;9.750;2023-04-28T08:37:14;100696.03;;;11.70;54.32
30636;BME280;17400;52.392;9.750;2023-04-28T08:39:42;100697.06;;;11.69;54.37
30636;BME280;17400;52.392;9.750;2023-04-28T08:42:10;100691.44;;;11.77;53.92
30636;BME280;17400;52.392;9.750;2023-04-28T08:44:38;100688.13;;;11.75;53.91
30636;BME280;17400;52.392;9.750;2023-04-28T08:47:10;100684.38;;;11.76;53.52
30636;BME280;17400;52.392;9.750;2023-04-28T08:49:40;100694.16;;;11.77;54.02
30636;BME280;17400;52.392;9.750;2023-04-28T08:52:09;100686.88;;;11.84;53.61
30636;BME280;17400;52.392;9.750;2023-04-28T08:54:39;100690.25;;;11.93;53.76
30636;BME280;17400;52.392;9.750;2023-04-28T08:57:08;100674.81;;;11.94;53.56
30636;BME280;17400;52.392;9.750;2023-04-28T08:59:40;100682.16;;;12.00;53.16
30636;BME280;17400;52.392;9.750;2023-04-28T09:02:08;100674.19;;;11.98;53.11
30636;BME280;17400;52.392;9.750;2023-04-28T09:04:36;100680.47;;;11.99;53.19
30636;BME280;17400;52.392;9.750;2023-04-28T09:07:09;100682.75;;;12.15;52.93
30636;BME280;17400;52.392;9.750;2023-04-28T09:09:39;100669.84;;;12.24;52.84
30636;BME280;17400;52.392;9.750;2023-04-28T09:12:07;100657.28;;;12.30;54.08
30636;BME280;17400;52.392;9.750;2023-04-28T09:14:35;100661.06;;;12.42;53.43
30636;BME280;17400;52.392;9.750;2023-04-28T09:17:08;100656.25;;;12.38;53.65
30636;BME280;17400;52.392;9.750;2023-04-28T09:19:37;100655.44;;;12.37;53.65
30636;BME280;17400;52.392;9.750;2023-04-28T09:22:05;100652.50;;;12.32;53.82
30636;BME280;17400;52.392;9.750;2023-04-28T09:24:53;100653.97;;;12.21;54.36
30636;BME280;17400;52.392;9.750;2023-04-28T09:27:25;100649.97;;;12.17;54.52
30636;BME280;17400;52.392;9.750;2023-04-28T09:29:54;100652.69;;;12.10;55.18
30636;BME280;17400;52.392;9.750;2023-04-28T09:32:22;100642.06;;;12.15;55.42
30636;BME280;17400;52.392;9.750;2023-04-28T09:34:52;100643.72;;;12.16;55.99
30636;BME280;17400;52.392;9.750;2023-04-28T09:37:23;100636.84;;;12.14;55.94
30636;BME280;17400;52.392;9.750;2023-04-28T09:39:53;100639.13;;;12.17;56.71
30636;BME280;17400;52.392;9.750;2023-04-28T09:42:31;100647.09;;;12.19;57.14
30636;BME280;17400;52.392;9.750;2023-04-28T09:45:00;100647.47;;;12.29;57.59
30636;BME280;17400;52.392;9.750;2023-04-28T09:47:29;100642.47;;;12.26;57.20
30636;BME280;17400;52.392;9.750;2023-04-28T09:49:59;100635.38;;;12.31;57.16
30636;BME280;17400;52.392;9.750;2023-04-28T09:52:27;100637.47;;;12.36;57.20
30636;BME280;17400;52.392;9.750;2023-04-28T09:54:56;100633.28;;;12.40;57.46
30636;BME280;17400;52.392;9.750;2023-04-28T09:57:25;100628.88;;;12.46;57.26
30636;BME280;17400;52.392;9.750;2023-04-28T09:59:57;100635.75;;;12.48;56.97
30636;BME280;17400;52.392;9.750;2023-04-28T10:02:25;100641.84;;;12.44;57.53
30636;BME280;17400;52.392;9.750;2023-04-28T10:04:56;100637.88;;;12.46;57.94
30636;BME280;17400;52.392;9.750;2023-04-28T10:07:25;100639.94;;;12.51;57.64
30636;BME280;17400;52.392;9.750;2023-04-28T10:09:54;100635.75;;;12.48;59.03
30636;BME280;17400;52.392;9.750;2023-04-28T10:12:24;100629.94;;;12.52;59.15
30636;BME280;17400;52.392;9.750;2023-04-28T10:14:52;100627.84;;;12.47;59.98
30636;BME280;17400;52.392;9.750;2023-04-28T10:17:21;100635.97;;;12.47;59.92
30636;BME280;17400;52.392;9.750;2023-04-28T10:19:52;100630.13;;;12.50;60.93
30636;BME280;17400;52.392;9.750;2023-04-28T10:22:31;100628.47;;;12.49;60.59
30636;BME280;17400;52.392;9.750;2023-04-28T10:25:25;100623.63;;;12.58;60.51
30636;BME280;17400;52.392;9.750;2023-04-28T10:27:55;100622.34;;;12.67;60.23
30636;BME280;17400;52.392;9.750;2023-04-28T10:30:25;100614.81;;;12.76;60.64
30636;BME280;17400;52.392;9.750;2023-04-28T10:33:23;100613.13;;;12.81;59.79
30636;BME280;17400;52.392;9.750;2023-04-28T10:35:53;100619.81;;;12.79;59.35
30636;BME280;17400;52.392;9.750;2023-04-28T10:38:21;100618.13;;;12.85;59.50
30636;BME280;17400;52.392;9.750;2023-04-28T10:40:50;100610.38;;;12.88;59.67
30636;BME280;17400;52.392;9.750;2023-04-28T10:43:34;100613.91;;;12.95;59.48
30636;BME280;17400;52.392;9.750;2023-04-28T10:46:07;100611.16;;;13.02;59.99
30636;BME280;17400;52.392;9.750;2023-04-28T10:49:05;100610.72;;;13.05;61.58
30636;BME280;17400;52.392;9.750;2023-04-28T10:51:35;100609.00;;;13.11;62.88
30636;BME280;17400;52.392;9.750;2023-04-28T10:54:24;100608.56;;;13.21;71.72
30636;BME280;17400;52.392;9.750;2023-04-28T10:57:15;100600.19;;;13.22;70.93
30636;BME280;17400;52.392;9.750;2023-04-28T10:59:46;100606.03;;;13.26;70.81
30636;BME280;17400;52.392;9.750;2023-04-28T11:02:39;100594.13;;;13.20;69.09
30636;BME280;17400;52.392;9.750;2023-04-28T11:05:17;100591.22;;;13.22;67.86
30636;BME280;17400;52.392;9.750;2023-04-28T11:11:26;100594.06;;;13.40;68.22
30636;BME280;17400;52.392;9.750;2023-04-28T11:14:30;100587.31;;;13.49;68.53
30636;BME280;17400;52.392;9.750;2023-04-28T11:17:01;100582.06;;;13.48;66.93
30636;BME280;17400;52.392;9.750;2023-04-28T11:19:31;100577.47;;;13.48;69.16
30636;BME280;17400;52.392;9.750;2023-04-28T11:22:02;100573.66;;;13.56;68.20
30636;BME280;17400;52.392;9.750;2023-04-28T11:24:30;100569.03;;;13.57;65.98
30636;BME280;17400;52.392;9.750;2023-04-28T11:26:58;100570.50;;;13.59;65.56
30636;BME280;17400;52.392;9.750;2023-04-28T11:29:30;100575.28;;;13.64;67.25
30636;BME280;17400;52.392;9.750;2023-04-28T11:32:00;100569.84;;;13.64;65.36
30636;BME280;17400;52.392;9.750;2023-04-28T11:34:29;100567.16;;;13.57;65.00
30636;BME280;17400;52.392;9.750;2023-04-28T11:36:57;100567.31;;;13.62;65.54
30636;BME280;17400;52.392;9.750;2023-04-28T11:39:26;100568.75;;;13.65;64.53
30636;BME280;17400;52.392;9.750;2023-04-28T11:41:58;100560.66;;;13.58;64.23
30636;BME280;17400;52.392;9.750;2023-04-28T11:44:28;100567.38;;;13.56;65.56
30636;BME280;17400;52.392;9.750;2023-04-28T11:46:56;100562.78;;;13.56;64.21
30636;BME280;17400;52.392;9.750;2023-04-28T11:49:29;100568.16;;;13.63;64.44
30636;BME280;17400;52.392;9.750;2023-04-28T11:52:03;100562.28;;;13.66;64.40
30636;BME280;17400;52.392;9.750;2023-04-28T11:54:31;100568.59;;;13.60;65.00
30636;BME280;17400;52.392;9.750;2023-04-28T11:57:00;100567.53;;;13.61;63.71
30636;BME280;17400;52.392;9.750;2023-04-28T11:59:31;100567.13;;;13.64;63.95
30636;BME280;17400;52.392;9.750;2023-04-28T12:02:01;100562.97;;;13.61;64.04
30636;BME280;17400;52.392;9.750;2023-04-28T12:04:32;100561.94;;;13.56;65.40
30636;BME280;17400;52.392;9.750;2023-04-28T12:07:03;100562.72;;;13.63;65.67
30636;BME280;17400;52.392;9.750;2023-04-28T12:09:33;100562.09;;;13.61;66.01
30636;BME280;17400;52.392;9.750;2023-04-28T12:12:02;100565.88;;;13.60;67.34
30636;BME280;17400;52.392;9.750;2023-04-28T12:14:31;100563.19;;;13.53;68.89
30636;BME280;17400;52.392;9.750;2023-04-28T12:17:01;100560.88;;;13.57;69.07
30636;BME280;17400;52.392;9.750;2023-04-28T12:19:42;100558.38;;;13.55;68.55
30636;BME280;17400;52.392;9.750;2023-04-28T12:22:10;100562.97;;;13.55;67.83
30636;BME280;17400;52.392;9.750;2023-04-28T12:24:38;100557.53;;;13.55;67.43
30636;BME280;17400;52.392;9.750;2023-04-28T12:27:13;100561.56;;;13.52;68.88
30636;BME280;17400;52.392;9.750;2023-04-28T12:29:43;100552.91;;;13.62;68.81
30636;BME280;17400;52.392;9.750;2023-04-28T12:32:12;100549.13;;;13.63;71.89
30636;BME280;17400;52.392;9.750;2023-04-28T12:34:43;100550.63;;;13.59;72.11
30636;BME280;17400;52.392;9.750;2023-04-28T12:37:12;100551.06;;;13.56;76.06
30636;BME280;17400;52.392;9.750;2023-04-28T12:39:40;100534.13;;;13.54;77.05
30636;BME280;17400;52.392;9.750;2023-04-28T12:42:08;100532.19;;;13.61;75.00
30636;BME280;17400;52.392;9.750;2023-04-28T12:44:37;100530.69;;;13.65;76.19
30636;BME280;17400;52.392;9.750;2023-04-28T12:47:07;100534.03;;;13.67;76.46
30636;BME280;17400;52.392;9.750;2023-04-28T12:49:36;100531.53;;;13.65;76.23
30636;BME280;17400;52.392;9.750;2023-04-28T12:52:07;100531.41;;;13.54;76.15
30636;BME280;17400;52.392;9.750;2023-04-28T12:54:35;100531.41;;;13.54;76.09
30636;BME280;17400;52.392;9.750;2023-04-28T12:57:03;100528.88;;;13.59;78.20
30636;BME280;17400;52.392;9.750;2023-04-28T12:59:32;100530.50;;;13.60;77.79
30636;BME280;17400;52.392;9.750;2023-04-28T13:02:00;100532.91;;;13.49;78.35
30636;BME280;17400;52.392;9.750;2023-04-28T13:04:29;100529.81;;;13.46;78.39
30636;BME280;17400;52.392;9.750;2023-04-28T13:06:58;100525.19;;;13.46;79.34
30636;BME280;17400;52.392;9.750;2023-04-28T13:09:27;100527.31;;;13.44;78.59